Time;durP1;ratioP1;P1;durP2;ratioP2;P2;SDS_P1;SDS_P2;PMS_P1;PMS_P2;Temp;Humidity;BMP_temperature;BMP_pressure;BME280_temperature;BME280_humidity;BME280_pressure;Samples;Min_cycle;Max_cycle;Signal;HPM_P1;HPM_P2
2023/10/05 00:01:33;;;;;;;4.05;1.40;;;;;;;10.27;82.94;98988.69;5095061;28;20423;-41
2023/10/05 00:04:01;;;;;;;4.75;1.30;;;;;;;10.26;83.70;98998.22;5072982;28;20047;-41
2023/10/05 00:06:27;;;;;;;4.45;1.38;;;;;;;10.24;83.49;99002.66;5087014;28;20051;-42
2023/10/05 00:08:55;;;;;;;5.15;1.10;;;;;;;10.21;83.95;99002.78;5103919;28;20047;-42
2023/10/05 00:11:36;;;;;;;3.28;1.55;;;;;;;10.00;84.08;98972.50;5107965;28;20031;-42
2023/10/05 00:14:12;;;;;;;4.47;1.98;;;;;;;10.20;84.52;99008.91;5067427;28;20047;-42
2023/10/05 00:16:39;;;;;;;4.20;1.10;;;;;;;10.17;84.81;99004.66;5068699;28;20037;-42
2023/10/05 00:19:11;;;;;;;3.53;1.60;;;;;;;10.15;85.08;99014.25;5073905;28;20070;-41
2023/10/05 00:21:50;;;;;;;6.57;1.42;;;;;;;10.15;85.33;99016.03;5067815;28;20041;-43
2023/10/05 00:24:27;;;;;;;3.58;1.38;;;;;;;10.11;85.38;99014.44;5056574;28;20037;-41
2023/10/05 00:26:56;;;;;;;3.03;1.08;;;;;;;10.11;86.09;99017.88;5069055;28;20071;-41
2023/10/05 00:29:29;;;;;;;7.10;1.83;;;;;;;10.07;85.64;99012.88;5066942;28;20531;-43
2023/10/05 00:31:59;;;;;;;3.55;1.25;;;;;;;10.05;85.97;99012.94;5078062;28;20135;-42
2023/10/05 00:34:27;;;;;;;5.25;1.17;;;;;;;10.05;86.40;99014.69;5066040;28;20044;-42
2023/10/05 00:36:58;;;;;;;4.78;1.35;;;;;;;10.04;86.44;99010.44;5082409;28;20051;-42
2023/10/05 00:39:25;;;;;;;2.65;1.13;;;;;;;10.02;86.61;99014.84;5074192;28;20070;-42
2023/10/05 00:44:32;;;;;;;2.70;1.17;;;;;;;9.99;86.63;99023.63;5082553;28;20127;-42
2023/10/05 00:47:04;;;;;;;1.48;0.70;;;;;;;9.99;87.09;99025.38;5086361;28;20130;-41
2023/10/05 00:49:41;;;;;;;3.47;1.30;;;;;;;9.97;86.63;99020.25;5071382;28;20060;-41
2023/10/05 00:52:16;;;;;;;8.02;1.10;;;;;;;9.96;87.00;99022.88;5055676;28;20055;-41
2023/10/05 00:54:45;;;;;;;3.95;1.35;;;;;;;9.95;87.18;99023.78;5088425;28;20063;-41
2023/10/05 00:57:15;;;;;;;2.50;1.10;;;;;;;9.70;87.66;98980.69;5071176;28;20048;-42
2023/10/05 00:59:42;;;;;;;3.40;0.85;;;;;;;9.91;87.64;99022.25;5054406;28;20051;-41
2023/10/05 01:02:14;;;;;;;2.00;1.13;;;;;;;9.89;88.23;99016.28;5072340;28;20058;-41
2023/10/05 01:07:19;;;;;;;4.07;1.48;;;;;;;9.90;88.30;99020.53;5059867;28;20082;-42
2023/10/05 01:12:34;;;;;;;3.65;1.10;;;;;;;9.85;88.84;99017.31;5079872;28;20127;-41
2023/10/05 01:15:03;;;;;;;3.72;1.50;;;;;;;9.78;89.17;99015.00;5087654;28;20044;-41
2023/10/05 01:17:30;;;;;;;3.00;1.20;;;;;;;9.48;88.94;98977.31;5074104;28;20089;-42
2023/10/05 01:19:59;;;;;;;4.57;1.25;;;;;;;9.45;89.60;98963.63;5073641;28;20036;-42
2023/10/05 01:22:32;;;;;;;3.30;1.30;;;;;;;9.84;89.81;99023.44;5070495;28;20082;-42
2023/10/05 01:25:02;;;;;;;3.47;1.20;;;;;;;9.82;90.00;99025.22;5071312;28;20037;-42
2023/10/05 01:27:35;;;;;;;3.38;0.90;;;;;;;9.79;90.12;99029.63;5072956;28;20123;-42
2023/10/05 01:30:03;;;;;;;2.20;1.10;;;;;;;9.58;90.23;98999.38;5090538;28;20055;-42
2023/10/05 01:32:32;;;;;;;2.78;1.75;;;;;;;9.77;90.42;99030.63;5074115;28;20032;-41
2023/10/05 01:34:59;;;;;;;4.88;1.38;;;;;;;9.74;90.46;99028.97;5074784;28;20056;-41
2023/10/05 01:37:30;;;;;;;3.53;1.60;;;;;;;9.73;91.02;99042.03;5070196;28;20075;-41
2023/10/05 01:39:59;;;;;;;3.47;1.45;;;;;;;9.72;91.32;99033.41;5070690;28;20500;-41
2023/10/05 01:42:25;;;;;;;3.83;1.35;;;;;;;9.71;91.65;99031.72;5071321;28;20067;-41
2023/10/05 01:44:51;;;;;;;4.22;1.27;;;;;;;9.67;91.61;99035.34;5061002;28;20067;-42
2023/10/05 01:47:22;;;;;;;3.53;1.17;;;;;;;9.66;91.84;99038.84;5064625;28;20043;-43
2023/10/05 01:49:50;;;;;;;5.80;1.42;;;;;;;9.63;91.98;99046.75;5078173;28;20426;-42
2023/10/05 01:52:16;;;;;;;5.93;1.85;;;;;;;9.59;92.41;99034.81;5086584;28;20606;-41
2023/10/05 01:54:44;;;;;;;5.70;1.60;;;;;;;9.59;92.80;99041.75;5070807;28;20124;-41
2023/10/05 01:57:12;;;;;;;1.42;0.63;;;;;;;9.34;92.43;98996.03;5053502;28;20044;-41
2023/10/05 01:59:40;;;;;;;4.28;1.40;;;;;;;9.52;93.27;99032.53;5053526;28;20040;-41
2023/10/05 02:02:10;;;;;;;1.48;1.10;;;;;;;9.54;93.73;99041.09;5087187;28;20530;-42
2023/10/05 02:04:44;;;;;;;3.35;1.27;;;;;;;9.52;93.78;99041.16;5085759;28;20044;-42
2023/10/05 02:07:16;;;;;;;4.55;1.02;;;;;;;9.26;93.91;99005.03;5071067;28;20046;-42
2023/10/05 02:09:43;;;;;;;2.75;1.30;;;;;;;9.47;94.38;99050.88;5054045;28;20037;-41
2023/10/05 02:12:09;;;;;;;5.55;1.52;;;;;;;9.46;94.66;99053.53;5075838;28;20050;-43
2023/10/05 02:14:39;;;;;;;4.18;1.30;;;;;;;9.48;94.53;99047.34;5064305;28;20040;-41
2023/10/05 02:17:07;;;;;;;2.22;1.17;;;;;;;9.47;94.58;99053.47;5052846;28;20036;-42
2023/10/05 02:19:36;;;;;;;3.00;1.52;;;;;;;9.25;94.75;99009.38;5058103;28;20402;-41
2023/10/05 02:22:22;;;;;;;3.85;1.67;;;;;;;9.14;95.11;98988.22;5083903;28;20127;-42
2023/10/05 02:24:51;;;;;;;4.32;1.25;;;;;;;9.56;94.62;99049.66;5074577;28;20044;-42
2023/10/05 02:27:17;;;;;;;3.90;1.25;;;;;;;9.54;94.47;99052.31;5058990;28;20075;-42
2023/10/05 02:29:44;;;;;;;2.95;1.10;;;;;;;9.57;94.86;99048.75;5069352;28;20037;-42
2023/10/05 02:32:14;;;;;;;2.80;1.17;;;;;;;9.53;94.69;99037.63;5070484;28;20048;-41
2023/10/05 02:37:10;;;;;;;4.55;1.20;;;;;;;9.28;95.42;99008.41;5087886;28;20043;-41
2023/10/05 02:39:37;;;;;;;6.10;1.27;;;;;;;9.44;95.44;99038.03;5082218;28;20032;-41
2023/10/05 02:42:11;;;;;;;3.28;1.10;;;;;;;9.06;95.75;98990.25;5055641;28;20184;-41
2023/10/05 02:44:37;;;;;;;3.53;1.15;;;;;;;9.39;96.77;99039.09;5085114;28;20040;-42
2023/10/05 02:47:10;;;;;;;2.20;1.10;;;;;;;9.16;96.27;99009.72;5078882;28;20123;-43
2023/10/05 02:49:43;;;;;;;7.05;1.27;;;;;;;9.35;96.25;99041.84;5068538;28;20946;-43
2023/10/05 02:52:15;;;;;;;6.82;1.60;;;;;;;9.34;96.43;99045.31;5093365;28;20032;-42
2023/10/05 02:54:47;;;;;;;3.60;1.23;;;;;;;9.32;97.10;99048.88;5083208;28;20040;-42
2023/10/05 02:57:16;;;;;;;3.00;1.17;;;;;;;9.30;97.63;99035.13;5090961;28;20044;-41
2023/10/05 02:59:43;;;;;;;4.20;1.38;;;;;;;9.29;97.62;99039.47;5072877;28;20032;-42
2023/10/05 03:02:14;;;;;;;3.85;1.42;;;;;;;9.27;98.05;99041.28;5084377;28;21919;-42
2023/10/05 03:04:48;;;;;;;4.97;1.33;;;;;;;9.23;97.83;99033.69;5067885;28;20582;-42
2023/10/05 03:07:18;;;;;;;5.82;1.60;;;;;;;9.21;98.09;99028.53;5085688;28;20055;-43
2023/10/05 03:09:46;;;;;;;5.38;1.40;;;;;;;9.21;98.42;99033.72;5073685;28;21679;-42
2023/10/05 03:12:13;;;;;;;3.25;1.50;;;;;;;9.19;98.58;99038.16;5089360;28;20040;-43
2023/10/05 03:14:43;;;;;;;2.40;1.30;;;;;;;9.16;99.25;99040.84;5087476;28;20085;-42
2023/10/05 03:17:18;;;;;;;3.95;1.40;;;;;;;9.15;99.46;99046.97;5100197;28;20044;-41
2023/10/05 03:19:44;;;;;;;2.60;1.08;;;;;;;9.14;99.29;99044.41;5072563;28;20036;-42
2023/10/05 03:22:13;;;;;;;3.67;1.38;;;;;;;9.13;99.80;99042.72;5100146;28;20629;-41
2023/10/05 03:24:44;;;;;;;2.83;1.40;;;;;;;9.11;99.80;99047.13;5081575;28;20556;-41
2023/10/05 03:27:12;;;;;;;3.03;1.60;;;;;;;9.10;99.65;99040.25;5059251;28;20490;-41
2023/10/05 03:29:45;;;;;;;5.35;1.55;;;;;;;9.09;99.66;99044.59;5080233;28;20070;-42
2023/10/05 03:34:38;;;;;;;3.00;1.48;;;;;;;9.07;100.00;99046.41;5085659;28;20094;-41
2023/10/05 03:37:10;;;;;;;5.10;1.40;;;;;;;9.08;100.00;99040.31;5069282;28;20036;-41
2023/10/05 03:39:48;;;;;;;6.22;2.08;;;;;;;8.70;100.00;98979.56;5075259;28;20107;-42
2023/10/05 03:42:14;;;;;;;6.60;2.33;;;;;;;9.12;100.00;99052.25;5083032;28;20073;-43
2023/10/05 03:44:40;;;;;;;6.45;2.40;;;;;;;9.10;100.00;99046.28;5067705;28;20044;-43
2023/10/05 03:47:06;;;;;;;5.30;1.95;;;;;;;9.06;100.00;99036.91;5050950;28;20075;-41
2023/10/05 03:49:33;;;;;;;4.13;1.73;;;;;;;9.08;100.00;99037.72;5081896;28;20465;-41
2023/10/05 03:52:00;;;;;;;3.78;1.52;;;;;;;9.08;100.00;99036.88;5078029;28;20044;-47
2023/10/05 03:54:26;;;;;;;4.50;1.67;;;;;;;9.08;100.00;99040.31;5089084;28;20096;-41
2023/10/05 03:57:27;;;;;;;6.35;1.70;;;;;;;9.10;100.00;99043.69;5085531;28;20075;-40
2023/10/05 03:59:46;;;;;;;9.57;2.08;;;;;;;9.09;100.00;99047.19;5085512;28;20054;-42
2023/10/05 04:02:13;;;;;;;7.03;2.20;;;;;;;9.09;100.00;99054.97;5064479;28;20045;-43
2023/10/05 04:04:42;;;;;;;8.27;2.60;;;;;;;9.10;100.00;99050.63;5051847;28;20036;-41
2023/10/05 04:07:08;;;;;;;6.13;2.05;;;;;;;9.20;100.00;99058.00;5085267;28;20426;-41
2023/10/05 04:09:35;;;;;;;7.55;2.63;;;;;;;9.23;100.00;99041.47;5087520;28;20040;-43
2023/10/05 04:12:04;;;;;;;3.72;1.70;;;;;;;9.34;100.00;99060.88;5086797;28;20092;-42
2023/10/05 04:14:33;;;;;;;9.15;2.33;;;;;;;9.36;100.00;99058.25;5079357;28;20056;-42
2023/10/05 04:17:07;;;;;;;6.43;2.17;;;;;;;9.34;100.00;99054.84;5077166;28;20071;-42
2023/10/05 04:19:34;;;;;;;5.55;2.13;;;;;;;9.28;99.81;99036.94;5084701;28;20388;-44
2023/10/05 04:22:01;;;;;;;15.50;3.40;;;;;;;9.34;100.00;99049.66;5052552;28;20047;-42
2023/10/05 04:24:27;;;;;;;9.23;2.53;;;;;;;9.31;100.00;99040.28;5045931;28;20417;-43
2023/10/05 04:26:53;;;;;;;5.30;2.35;;;;;;;9.32;100.00;99048.88;5087552;28;20043;-42
2023/10/05 04:29:23;;;;;;;5.35;2.08;;;;;;;9.13;100.00;99017.63;5078561;28;20041;-42
2023/10/05 04:31:51;;;;;;;5.10;2.25;;;;;;;9.43;100.00;99059.66;5078449;28;20044;-42
2023/10/05 04:34:21;;;;;;;4.85;2.05;;;;;;;9.37;100.00;99027.97;5069066;28;20036;-42
2023/10/05 04:36:53;;;;;;;11.60;2.38;;;;;;;9.73;99.70;99062.81;5083559;28;20080;-42
2023/10/05 04:39:27;;;;;;;6.28;1.60;;;;;;;9.88;99.09;99062.19;5053513;28;20470;-43
2023/10/05 04:41:55;;;;;;;6.15;1.77;;;;;;;9.99;97.86;99053.94;5049998;28;20044;-42
2023/10/05 04:44:21;;;;;;;4.40;1.40;;;;;;;9.71;97.12;98999.72;5089123;28;20495;-42
2023/10/05 04:46:49;;;;;;;6.10;1.98;;;;;;;9.88;96.58;99023.22;5103704;28;20083;-41
2023/10/05 04:49:16;;;;;;;5.22;1.88;;;;;;;10.14;95.83;99058.47;5069754;28;20453;-40
2023/10/05 04:51:43;;;;;;;3.83;1.70;;;;;;;10.20;95.39;99064.28;5073602;28;20066;-41
2023/10/05 04:54:12;;;;;;;5.80;2.25;;;;;;;10.37;94.82;99065.31;5096952;28;20048;-41
2023/10/05 05:07:02;;;;;;;2.08;1.08;;;;;;;10.45;92.60;99078.81;5093900;28;20067;-40
2023/10/05 05:09:35;;;;;;;3.60;1.10;;;;;;;10.46;92.12;99076.16;5069672;28;20079;-41
2023/10/05 05:12:03;;;;;;;3.63;1.30;;;;;;;10.53;91.90;99085.38;5087952;28;20451;-42
2023/10/05 05:14:35;;;;;;;7.55;1.63;;;;;;;10.63;91.10;99085.81;5083658;28;20036;-41
2023/10/05 05:17:05;;;;;;;4.72;1.63;;;;;;;10.67;91.66;99081.34;5099530;28;20609;-41
2023/10/05 05:19:32;;;;;;;7.45;1.75;;;;;;;10.78;91.31;99092.09;5093628;28;20484;-42
2023/10/05 05:22:04;;;;;;;5.35;1.63;;;;;;;10.89;90.31;99089.84;5106797;28;20050;-41
2023/10/05 05:24:34;;;;;;;4.07;1.70;;;;;;;10.87;89.32;99076.09;5101422;28;20074;-42
2023/10/05 05:27:01;;;;;;;3.22;1.42;;;;;;;10.89;88.86;99082.03;5066583;28;20039;-43
2023/10/05 05:29:32;;;;;;;4.25;1.80;;;;;;;11.01;89.36;99089.28;5099701;28;20839;-43
2023/10/05 05:32:07;;;;;;;5.85;1.55;;;;;;;11.31;87.45;99061.84;5106892;28;20427;-43
2023/10/05 05:34:33;;;;;;;4.03;1.30;;;;;;;11.92;85.83;99089.34;5075530;28;20051;-50
2023/10/05 05:36:59;;;;;;;4.82;1.52;;;;;;;12.07;83.53;99065.13;5111738;28;20063;-43
2023/10/05 05:39:31;;;;;;;5.65;1.45;;;;;;;12.31;82.31;99088.19;5109546;28;20122;-43
2023/10/05 05:42:05;;;;;;;3.50;1.40;;;;;;;12.30;81.33;99099.53;5098758;28;20551;-42
2023/10/05 05:44:30;;;;;;;4.32;1.10;;;;;;;12.28;80.99;99096.16;5090396;28;20049;-43
2023/10/05 05:46:59;;;;;;;8.43;1.92;;;;;;;12.11;81.17;99084.91;5089965;28;20700;-42
2023/10/05 05:49:27;;;;;;;3.17;1.55;;;;;;;12.06;81.12;99090.34;5073066;28;20071;-42
2023/10/05 05:51:53;;;;;;;7.25;1.77;;;;;;;11.90;81.07;99099.81;5089934;28;20527;-44
2023/10/05 05:54:19;;;;;;;2.55;1.25;;;;;;;11.56;81.32;99045.06;5096483;28;20043;-44
2023/10/05 05:56:45;;;;;;;7.28;1.52;;;;;;;11.91;81.71;99109.34;5064636;28;20122;-43
2023/10/05 05:59:14;;;;;;;3.30;1.67;;;;;;;11.89;81.84;99100.75;5074616;28;20586;-42
2023/10/05 06:01:40;;;;;;;3.25;1.40;;;;;;;11.68;81.29;99071.34;5111719;28;20093;-41
2023/10/05 06:04:06;;;;;;;4.20;1.70;;;;;;;11.86;81.89;99106.97;5105657;28;20047;-42
2023/10/05 06:06:31;;;;;;;4.57;1.40;;;;;;;11.75;81.48;99070.16;5073593;28;20055;-42
2023/10/05 06:08:57;;;;;;;3.92;1.55;;;;;;;11.86;81.87;99093.94;5068879;28;20532;-44
2023/10/05 06:11:23;;;;;;;4.30;1.48;;;;;;;11.85;81.85;99092.25;5073168;28;20104;-43
2023/10/05 06:13:49;;;;;;;4.53;1.52;;;;;;;12.03;81.68;99103.53;5111467;28;20100;-43
2023/10/05 06:16:15;;;;;;;2.78;1.50;;;;;;;12.16;80.75;99095.94;5106967;28;20047;-44
2023/10/05 06:18:41;;;;;;;3.38;1.35;;;;;;;12.34;80.46;99094.16;5088046;28;20067;-43
2023/10/05 06:21:07;;;;;;;7.82;1.90;;;;;;;12.38;80.07;99093.09;5093957;27;20036;-44
2023/10/05 06:23:34;;;;;;;5.43;1.65;;;;;;;12.50;79.45;99095.91;5091568;28;20149;-43
2023/10/05 06:26:00;;;;;;;5.97;1.63;;;;;;;12.50;79.06;99095.91;5105452;28;20066;-43
2023/10/05 06:28:27;;;;;;;3.22;1.40;;;;;;;12.61;78.89;99097.97;5070329;28;20044;-42
2023/10/05 06:30:53;;;;;;;6.13;2.10;;;;;;;12.38;78.79;99059.19;5071014;28;20588;-42
2023/10/05 06:33:19;;;;;;;6.13;2.05;;;;;;;12.51;78.45;99070.69;5109803;28;20039;-43
2023/10/05 06:35:46;;;;;;;4.35;1.65;;;;;;;12.66;77.56;99101.19;5092562;28;20093;-42
2023/10/05 06:38:12;;;;;;;5.18;2.10;;;;;;;12.67;78.07;99108.91;5082881;28;20153;-43
2023/10/05 06:40:38;;;;;;;6.32;1.80;;;;;;;12.90;77.23;99105.09;5107337;28;20494;-43
2023/10/05 06:43:07;;;;;;;7.50;2.00;;;;;;;12.97;76.91;99113.47;5108749;28;20134;-43
2023/10/05 06:45:35;;;;;;;3.75;1.70;;;;;;;12.99;76.00;99098.53;5107811;28;20035;-44
2023/10/05 06:48:05;;;;;;;4.03;1.60;;;;;;;13.15;75.70;99092.44;5078179;28;20417;-41
2023/10/05 06:50:30;;;;;;;5.22;1.75;;;;;;;13.33;74.99;99093.22;5073575;28;20442;-43
2023/10/05 06:52:56;;;;;;;3.20;1.48;;;;;;;13.65;74.02;99093.22;5087703;28;20043;-43
2023/10/05 06:55:23;;;;;;;3.58;1.30;;;;;;;14.75;69.38;99072.78;5109530;28;20120;-42
2023/10/05 06:57:53;;;;;;;4.90;2.13;;;;;;;15.74;66.62;99092.72;5104944;28;20035;-43
2023/10/05 07:00:20;;;;;;;6.00;1.65;;;;;;;15.80;65.21;99087.94;5107284;28;20035;-42
2023/10/05 07:02:48;;;;;;;6.07;1.70;;;;;;;15.50;65.14;99098.56;5092295;28;20031;-42
2023/10/05 07:05:14;;;;;;;5.07;2.08;;;;;;;15.07;65.24;99068.97;5070981;28;20603;-41
2023/10/05 07:07:43;;;;;;;4.57;1.67;;;;;;;15.56;65.57;99108.69;5068230;28;20045;-43
2023/10/05 07:10:12;;;;;;;5.57;2.03;;;;;;;15.66;64.72;99103.69;5069620;28;20512;-42
2023/10/05 07:12:47;;;;;;;6.25;1.70;;;;;;;15.87;64.14;99104.09;5096471;28;20047;-42
2023/10/05 07:15:14;;;;;;;4.63;1.98;;;;;;;15.35;64.09;99112.63;5110167;28;20518;-43
2023/10/05 07:17:41;;;;;;;5.25;2.13;;;;;;;15.01;65.13;99111.28;5069604;28;20054;-42
2023/10/05 07:20:16;;;;;;;4.20;2.03;;;;;;;14.76;65.48;99111.91;5090840;28;20539;-44
2023/10/05 07:22:44;;;;;;;5.07;1.85;;;;;;;14.64;66.08;99114.44;5079673;28;20056;-42
2023/10/05 07:25:14;;;;;;;3.38;1.20;;;;;;;14.35;66.29;99110.91;5074995;28;20036;-42
2023/10/05 07:27:44;;;;;;;4.07;1.73;;;;;;;14.14;67.17;99114.75;5101222;28;20060;-43
2023/10/05 07:30:10;;;;;;;4.50;1.50;;;;;;;13.99;67.67;99121.72;5069109;28;20508;-44
2023/10/05 07:32:36;;;;;;;8.10;2.03;;;;;;;13.91;67.97;99119.56;5067995;28;20048;-43
2023/10/05 07:35:05;;;;;;;2.80;1.33;;;;;;;13.79;68.00;99114.16;5068709;28;20047;-44
2023/10/05 07:37:33;;;;;;;6.95;2.30;;;;;;;13.67;68.67;99115.69;5093958;28;20531;-43
2023/10/05 07:40:00;;;;;;;6.47;2.10;;;;;;;13.59;69.11;99117.91;5105787;28;20039;-42
2023/10/05 07:42:37;;;;;;;5.55;2.30;;;;;;;13.67;69.29;99114.84;5091015;28;20793;-44
2023/10/05 07:45:07;;;;;;;5.20;1.77;;;;;;;13.80;68.66;99116.69;5106068;28;20035;-46
2023/10/05 07:47:39;;;;;;;3.42;1.73;;;;;;;13.98;68.64;99125.25;5099341;28;20040;-42
2023/10/05 07:50:09;;;;;;;4.88;1.38;;;;;;;14.06;68.32;99124.81;5076379;28;20109;-42
2023/10/05 07:52:38;;;;;;;7.15;2.20;;;;;;;13.92;68.67;99121.22;5081813;28;20071;-42
2023/10/05 07:55:07;;;;;;;4.90;1.85;;;;;;;13.84;68.70;99133.03;5097212;28;20134;-43
2023/10/05 07:57:33;;;;;;;3.25;1.40;;;;;;;13.77;69.05;99122.09;5095535;28;20039;-42
2023/10/05 07:59:58;;;;;;;6.20;2.42;;;;;;;13.77;69.18;99127.31;5083105;28;20081;-42
2023/10/05 08:02:24;;;;;;;6.50;2.05;;;;;;;13.64;69.22;99102.81;5054490;28;20130;-42
2023/10/05 08:04:50;;;;;;;3.20;1.40;;;;;;;13.78;69.15;99125.53;5081567;28;20478;-42
2023/10/05 08:07:16;;;;;;;6.55;1.70;;;;;;;13.70;69.43;99131.22;5058080;28;20151;-42
2023/10/05 08:09:42;;;;;;;8.20;1.92;;;;;;;13.66;69.63;99131.47;5068570;28;20040;-43
2023/10/05 08:12:11;;;;;;;3.95;1.50;;;;;;;13.67;70.11;99128.75;5067368;28;20048;-43
2023/10/05 08:14:37;;;;;;;6.07;1.40;;;;;;;13.65;69.75;99114.94;5066971;28;20052;-44
2023/10/05 08:17:03;;;;;;;4.00;1.60;;;;;;;13.79;69.70;99119.38;5075909;28;20044;-44
2023/10/05 08:19:29;;;;;;;4.57;1.77;;;;;;;14.13;69.11;99116.53;5068781;28;20042;-43
2023/10/05 08:21:55;;;;;;;7.88;2.35;;;;;;;14.40;68.35;99098.41;5076091;28;20074;-42
2023/10/05 08:24:23;;;;;;;6.57;2.05;;;;;;;14.51;66.90;99100.41;5078131;28;20759;-42
2023/10/05 08:26:56;;;;;;;7.20;2.40;;;;;;;14.73;66.71;99119.97;5077341;28;20066;-42
2023/10/05 08:29:22;;;;;;;4.97;1.58;;;;;;;14.43;66.48;99087.78;5070716;28;20068;-44
2023/10/05 08:31:50;;;;;;;8.82;2.42;;;;;;;14.39;66.38;99120.31;5083746;28;20040;-42
2023/10/05 08:34:20;;;;;;;5.88;2.28;;;;;;;14.43;66.70;99118.34;5076296;28;20050;-44
2023/10/05 08:36:53;;;;;;;6.95;1.60;;;;;;;14.16;66.66;99085.00;5066870;28;20036;-43
2023/10/05 08:39:25;;;;;;;3.90;1.73;;;;;;;14.15;67.10;99093.75;5065252;28;20060;-44
2023/10/05 08:41:57;;;;;;;7.72;1.70;;;;;;;14.35;67.36;99121.34;5069981;28;20123;-42
2023/10/05 08:44:26;;;;;;;4.80;1.60;;;;;;;14.48;66.59;99121.50;5060332;28;20147;-43
2023/10/05 08:46:55;;;;;;;9.15;2.80;;;;;;;14.43;66.61;99120.94;5070937;28;20058;-44
2023/10/05 08:49:23;;;;;;;;;;;;;;;14.40;66.62;99117.56;5086370;28;20056;-44
2023/10/05 08:51:49;;;;;;;3.42;1.77;;;;;;;14.53;66.60;99122.94;5066922;28;19919;-43
2023/10/05 08:54:15;;;;;;;7.40;2.30;;;;;;;14.61;66.00;99117.22;5073974;28;20047;-43
2023/10/05 08:56:47;;;;;;;6.22;2.17;;;;;;;14.46;65.90;99123.38;5085386;28;20390;-43
2023/10/05 08:59:13;;;;;;;9.50;2.15;;;;;;;14.26;66.56;99109.66;5082066;28;20108;-43
2023/10/05 09:01:42;;;;;;;5.60;1.33;;;;;;;14.24;67.23;99123.75;5075078;28;20396;-43
2023/10/05 09:04:23;;;;;;;6.88;2.30;;;;;;;14.81;67.39;99115.09;5067809;28;20047;-44
2023/10/05 09:06:52;;;;;;;6.22;2.42;;;;;;;15.39;66.35;99126.38;5067081;28;20054;-44
2023/10/05 09:09:28;;;;;;;;;;;;;;;15.66;64.27;99127.28;5068112;28;20102;-44
2023/10/05 09:11:56;;;;;;;8.88;2.00;;;;;;;15.50;63.86;99119.50;5091868;28;19916;-42
2023/10/05 09:14:28;;;;;;;9.65;1.98;;;;;;;15.37;63.62;99123.88;5076658;28;20864;-43
2023/10/05 09:17:07;;;;;;;5.65;2.10;;;;;;;15.00;64.67;99099.13;5071116;28;20309;-51
2023/10/05 09:19:33;;;;;;;5.15;1.70;;;;;;;15.21;64.78;99110.88;5073215;28;20040;-43
2023/10/05 09:24:29;;;;;;;5.05;2.10;;;;;;;15.04;64.59;99118.94;5083168;28;20040;-42
2023/10/05 09:26:57;;;;;;;9.18;2.63;;;;;;;15.14;64.58;99127.91;5067121;28;20078;-45
2023/10/05 09:29:32;;;;;;;7.97;2.38;;;;;;;14.74;65.35;99103.34;5098037;28;20042;-43
2023/10/05 09:31:59;;;;;;;4.70;2.05;;;;;;;14.77;65.96;99124.06;5084453;28;20043;-44
2023/10/05 09:34:34;;;;;;;8.82;1.73;;;;;;;14.61;66.63;99117.22;5107478;28;20046;-42
2023/10/05 09:37:07;;;;;;;4.85;2.03;;;;;;;14.39;66.74;99094.97;5107913;28;20088;-45
2023/10/05 09:39:44;;;;;;;8.00;2.38;;;;;;;14.28;67.05;99101.75;5094432;28;20036;-47
2023/10/05 09:42:14;;;;;;;6.18;1.80;;;;;;;14.26;67.18;99122.75;5105176;28;20036;-44
2023/10/05 09:44:46;;;;;;;4.63;1.08;;;;;;;14.18;68.04;99131.97;5070140;28;20049;-43
2023/10/05 09:47:13;;;;;;;7.75;1.45;;;;;;;13.91;68.87;99130.00;5103190;27;20071;-42
2023/10/05 09:49:39;;;;;;;8.38;1.60;;;;;;;13.77;69.90;99124.69;5080799;28;20047;-43
2023/10/05 09:52:08;;;;;;;4.00;1.63;;;;;;;13.73;69.83;99112.75;5073427;28;20090;-41
2023/10/05 09:54:35;;;;;;;3.17;1.20;;;;;;;13.69;69.42;99100.78;5066896;28;20046;-41
2023/10/05 09:57:10;;;;;;;4.25;1.60;;;;;;;13.61;69.03;99069.00;5065445;28;20048;-44
2023/10/05 09:59:41;;;;;;;3.20;1.35;;;;;;;14.00;69.07;99110.34;5070208;28;20149;-41
2023/10/05 10:02:14;;;;;;;4.05;1.40;;;;;;;13.99;68.97;99119.09;5090992;28;20040;-46
2023/10/05 10:04:41;;;;;;;4.50;1.67;;;;;;;14.87;68.10;99118.28;5083067;28;20151;-42
2023/10/05 10:07:22;;;;;;;3.38;1.83;;;;;;;17.46;61.48;99115.91;5064623;28;20060;-42
2023/10/05 10:09:53;;;;;;;7.22;1.55;;;;;;;18.14;57.59;99118.81;5064352;28;20130;-42
2023/10/05 10:12:38;;;;;;;5.20;1.55;;;;;;;17.03;58.49;99115.47;5074640;28;20043;-41
2023/10/05 10:15:24;;;;;;;4.95;1.80;;;;;;;16.61;59.55;99119.25;5104969;28;20039;-42
2023/10/05 10:18:03;;;;;;;10.60;1.77;;;;;;;16.37;60.79;99121.75;5105322;28;20047;-42
2023/10/05 10:20:35;;;;;;;5.05;1.58;;;;;;;15.86;60.90;99120.78;5049456;28;20239;-44
2023/10/05 10:23:36;;;;;;;4.60;1.52;;;;;;;15.65;62.22;99113.31;5082142;28;20629;-43
2023/10/05 10:26:06;;;;;;;4.18;1.40;;;;;;;15.36;62.60;99121.34;5076037;28;20511;-43
2023/10/05 10:31:19;;;;;;;3.65;1.60;;;;;;;15.15;63.50;99092.09;5101835;28;21792;-42
2023/10/05 10:33:50;;;;;;;9.63;1.95;;;;;;;15.34;63.58;99118.81;5065875;28;20097;-43
2023/10/05 10:36:46;;;;;;;9.23;2.20;;;;;;;15.20;63.93;99126.69;5064599;28;20040;-43
2023/10/05 10:39:23;;;;;;;6.03;1.63;;;;;;;14.82;64.46;99095.00;5087668;28;20221;-41
2023/10/05 10:42:33;;;;;;;5.22;2.17;;;;;;;14.73;65.52;99127.81;5065244;28;20055;-44
2023/10/05 10:47:19;;;;;;;5.32;1.52;;;;;;;14.27;68.82;99142.72;5100644;28;20730;-42
2023/10/05 10:50:15;;;;;;;5.88;1.70;;;;;;;13.88;73.15;99134.53;5083423;28;20201;-40
2023/10/05 10:52:43;;;;;;;6.90;2.13;;;;;;;13.78;74.24;99110.72;5078088;28;20079;-43
2023/10/05 10:55:14;;;;;;;4.60;1.83;;;;;;;13.92;75.05;99123.81;5080997;28;20062;-42
2023/10/05 10:57:45;;;;;;;4.10;1.50;;;;;;;14.31;74.21;99123.31;5084254;28;20067;-42
2023/10/05 11:02:56;;;;;;;4.38;1.70;;;;;;;16.55;67.45;99115.25;5082936;28;20457;-45
2023/10/05 11:05:36;;;;;;;5.40;2.22;;;;;;;18.07;62.12;99123.69;5082090;28;20078;-44
2023/10/05 11:08:05;;;;;;;4.90;2.00;;;;;;;18.86;59.80;99119.47;5075819;28;20162;-43
2023/10/05 11:10:31;;;;;;;6.53;1.73;;;;;;;19.63;55.84;99115.16;5087359;28;20129;-41
2023/10/05 11:13:28;;;;;;;5.13;2.00;;;;;;;21.26;52.28;99118.13;5088708;28;20050;-43
2023/10/05 11:16:00;;;;;;;4.90;1.45;;;;;;;21.18;50.65;99118.81;5064225;28;20048;-43
2023/10/05 11:18:31;;;;;;;8.55;1.85;;;;;;;19.41;52.82;99116.00;5053814;28;20131;-43
2023/10/05 11:21:12;;;;;;;5.22;2.00;;;;;;;19.66;53.13;99136.84;5087387;28;20043;-43
2023/10/05 11:23:55;;;;;;;4.22;1.67;;;;;;;18.96;53.01;99138.88;5085824;28;20093;-41
2023/10/05 11:26:57;;;;;;;5.47;2.20;;;;;;;18.09;55.07;99115.69;5061829;28;20435;-40
2023/10/05 11:29:42;;;;;;;5.88;2.47;;;;;;;17.64;56.56;99099.69;5057542;28;20047;-42
2023/10/05 11:32:19;;;;;;;7.95;2.38;;;;;;;17.48;56.72;99109.59;5071016;28;20046;-41
2023/10/05 11:34:46;;;;;;;6.32;1.92;;;;;;;17.45;56.37;99117.69;5071304;28;20059;-42
2023/10/05 11:37:17;;;;;;;8.05;2.53;;;;;;;17.39;56.39;99105.00;5074955;28;20036;-42
2023/10/05 11:39:49;;;;;;;4.00;1.50;;;;;;;17.41;56.01;99113.63;5087354;28;20514;-41
2023/10/05 11:42:23;;;;;;;3.95;1.85;;;;;;;17.11;55.77;99106.13;5069640;28;20040;-41
2023/10/05 11:44:52;;;;;;;4.05;1.27;;;;;;;16.79;56.14;99087.38;5052286;28;20040;-41
2023/10/05 11:47:32;;;;;;;1.95;0.85;;;;;;;16.82;56.22;99110.78;5079035;28;20059;-41
2023/10/05 11:50:08;;;;;;;3.47;1.25;;;;;;;16.40;55.79;99075.13;5083631;28;20080;-41
2023/10/05 11:52:38;;;;;;;2.10;0.75;;;;;;;16.30;56.55;99099.47;5084928;28;20418;-42
2023/10/05 11:55:11;;;;;;;4.40;1.60;;;;;;;16.21;57.48;99094.84;5088189;28;20040;-41
2023/10/05 11:57:38;;;;;;;4.53;1.77;;;;;;;16.23;57.54;99069.34;5076105;28;20064;-43
2023/10/05 12:00:06;;;;;;;5.35;1.90;;;;;;;16.54;57.44;99098.66;5066762;28;20447;-42
2023/10/05 12:02:33;;;;;;;3.47;1.40;;;;;;;16.48;57.44;99098.25;5088081;28;20217;-41
2023/10/05 12:04:59;;;;;;;5.45;1.50;;;;;;;15.94;58.36;99040.66;5065425;28;20503;-41
2023/10/05 12:07:25;;;;;;;4.40;1.70;;;;;;;16.00;58.61;99105.81;5077945;28;20531;-43
2023/10/05 12:09:53;;;;;;;4.20;1.48;;;;;;;15.87;59.29;99097.06;5085603;28;20133;-41
2023/10/05 12:12:19;;;;;;;2.75;1.27;;;;;;;15.72;59.33;99073.63;5086523;28;20080;-41
2023/10/05 12:14:45;;;;;;;8.05;2.50;;;;;;;15.51;59.99;99104.63;5087452;28;20040;-41
2023/10/05 12:17:11;;;;;;;10.75;3.50;;;;;;;14.98;61.50;99058.25;5085373;28;20039;-42
2023/10/05 12:19:39;;;;;;;2.50;1.10;;;;;;;14.84;63.97;99106.22;5076337;28;20143;-42
2023/10/05 12:22:06;;;;;;;3.60;1.58;;;;;;;14.26;66.79;99075.69;5068608;28;20047;-44
2023/10/05 12:24:35;;;;;;;3.85;1.30;;;;;;;14.21;68.79;99100.41;5062375;28;20420;-49